sensor_id;sensor_type;location;lat;lon;timestamp;pressure;altitude;pressure_sealevel;temperature;humidity
24996;BME280;13016;52.162;21.034;2023-03-13T00:02:20;99915.19;;;7.71;46.16
24996;BME280;13016;52.162;21.034;2023-03-13T00:07:32;99905.20;;;7.74;46.30
24996;BME280;13016;52.162;21.034;2023-03-13T00:09:57;99909.98;;;7.76;45.99
24996;BME280;13016;52.162;21.034;2023-03-13T00:12:29;99904.02;;;7.67;46.17
24996;BME280;13016;52.162;21.034;2023-03-13T00:15:00;99903.03;;;7.75;46.28
24996;BME280;13016;52.162;21.034;2023-03-13T00:17:25;99895.23;;;7.76;46.25
24996;BME280;13016;52.162;21.034;2023-03-13T00:19:54;99893.14;;;7.61;46.47
24996;BME280;13016;52.162;21.034;2023-03-13T00:22:19;99893.00;;;7.73;46.38
24996;BME280;13016;52.162;21.034;2023-03-13T00:24:44;99889.73;;;7.68;46.18
24996;BME280;13016;52.162;21.034;2023-03-13T00:27:10;99891.86;;;7.68;46.36
24996;BME280;13016;52.162;21.034;2023-03-13T00:29:35;99890.56;;;7.93;46.27
24996;BME280;13016;52.162;21.034;2023-03-13T00:32:12;99886.02;;;8.05;45.90
24996;BME280;13016;52.162;21.034;2023-03-13T00:34:37;99885.80;;;8.05;45.67
24996;BME280;13016;52.162;21.034;2023-03-13T00:37:03;99888.34;;;8.01;45.69
24996;BME280;13016;52.162;21.034;2023-03-13T00:39:28;99893.39;;;8.11;45.83
24996;BME280;13016;52.162;21.034;2023-03-13T00:44:37;99893.21;;;8.24;45.38
24996;BME280;13016;52.162;21.034;2023-03-13T00:49:46;99887.86;;;8.31;45.19
24996;BME280;13016;52.162;21.034;2023-03-13T00:52:12;99881.88;;;8.19;45.44
24996;BME280;13016;52.162;21.034;2023-03-13T00:54:37;99882.14;;;8.14;45.50
24996;BME280;13016;52.162;21.034;2023-03-13T00:57:03;99884.60;;;8.11;45.65
24996;BME280;13016;52.162;21.034;2023-03-13T00:59:28;99884.27;;;8.23;45.64
24996;BME280;13016;52.162;21.034;2023-03-13T01:01:53;99877.84;;;8.16;45.41
24996;BME280;13016;52.162;21.034;2023-03-13T01:04:33;99875.31;;;8.07;45.59
24996;BME280;13016;52.162;21.034;2023-03-13T01:07:14;99873.84;;;8.12;45.83
24996;BME280;13016;52.162;21.034;2023-03-13T01:09:39;99864.29;;;8.29;45.33
24996;BME280;13016;52.162;21.034;2023-03-13T01:12:04;99867.85;;;8.37;45.44
24996;BME280;13016;52.162;21.034;2023-03-13T01:14:30;99862.68;;;8.46;45.23
24996;BME280;13016;52.162;21.034;2023-03-13T01:16:55;99853.42;;;8.51;45.22
24996;BME280;13016;52.162;21.034;2023-03-13T01:19:20;99850.82;;;8.48;44.96
24996;BME280;13016;52.162;21.034;2023-03-13T01:21:45;99846.01;;;8.37;44.98
24996;BME280;13016;52.162;21.034;2023-03-13T01:24:11;99845.10;;;8.40;45.01
24996;BME280;13016;52.162;21.034;2023-03-13T01:26:36;99844.76;;;8.29;45.10
24996;BME280;13016;52.162;21.034;2023-03-13T01:29:01;99846.52;;;8.08;45.41
24996;BME280;13016;52.162;21.034;2023-03-13T01:31:28;99846.23;;;8.16;45.48
24996;BME280;13016;52.162;21.034;2023-03-13T01:34:00;99845.10;;;8.17;45.47
24996;BME280;13016;52.162;21.034;2023-03-13T01:36:36;99840.86;;;8.29;45.38
24996;BME280;13016;52.162;21.034;2023-03-13T01:39:08;99844.76;;;8.23;45.33
24996;BME280;13016;52.162;21.034;2023-03-13T01:53:46;99821.42;;;8.01;45.77
24996;BME280;13016;52.162;21.034;2023-03-13T01:56:16;99810.37;;;7.77;46.11
24996;BME280;13016;52.162;21.034;2023-03-13T01:58:42;99814.33;;;7.64;46.56
24996;BME280;13016;52.162;21.034;2023-03-13T02:01:08;99813.54;;;8.04;45.93
24996;BME280;13016;52.162;21.034;2023-03-13T02:03:34;99817.07;;;7.98;45.75
24996;BME280;13016;52.162;21.034;2023-03-13T02:06:00;99815.58;;;7.82;46.09
24996;BME280;13016;52.162;21.034;2023-03-13T02:08:30;99808.40;;;7.57;47.02
24996;BME280;13016;52.162;21.034;2023-03-13T02:13:34;99801.65;;;7.71;46.76
24996;BME280;13016;52.162;21.034;2023-03-13T02:15:59;99804.04;;;7.84;46.48
24996;BME280;13016;52.162;21.034;2023-03-13T02:18:25;99800.27;;;7.67;46.96
24996;BME280;13016;52.162;21.034;2023-03-13T02:20:50;99792.80;;;7.57;47.42
24996;BME280;13016;52.162;21.034;2023-03-13T02:23:19;99791.20;;;7.54;47.75
24996;BME280;13016;52.162;21.034;2023-03-13T02:25:51;99793.46;;;7.72;47.67
24996;BME280;13016;52.162;21.034;2023-03-13T02:30:42;99793.38;;;8.06;47.37
24996;BME280;13016;52.162;21.034;2023-03-13T02:33:09;99791.36;;;7.84;47.73
24996;BME280;13016;52.162;21.034;2023-03-13T02:35:34;99790.59;;;7.94;47.90
24996;BME280;13016;52.162;21.034;2023-03-13T02:38:03;99791.48;;;7.88;48.20
24996;BME280;13016;52.162;21.034;2023-03-13T02:40:30;99791.44;;;8.15;47.73
24996;BME280;13016;52.162;21.034;2023-03-13T02:42:57;99793.63;;;8.11;47.94
24996;BME280;13016;52.162;21.034;2023-03-13T02:45:32;99793.50;;;7.87;48.67
24996;BME280;13016;52.162;21.034;2023-03-13T02:48:06;99791.45;;;7.77;49.18
24996;BME280;13016;52.162;21.034;2023-03-13T02:50:31;99783.81;;;7.96;48.65
24996;BME280;13016;52.162;21.034;2023-03-13T02:53:16;99791.05;;;7.92;48.85
24996;BME280;13016;52.162;21.034;2023-03-13T02:55:41;99793.71;;;7.92;48.95
24996;BME280;13016;52.162;21.034;2023-03-13T02:58:25;99792.88;;;7.91;48.82
24996;BME280;13016;52.162;21.034;2023-03-13T03:00:51;99790.47;;;7.90;49.01
24996;BME280;13016;52.162;21.034;2023-03-13T03:03:16;99794.85;;;7.96;48.85
24996;BME280;13016;52.162;21.034;2023-03-13T03:05:41;99790.17;;;7.89;49.11
24996;BME280;13016;52.162;21.034;2023-03-13T03:10:50;99786.33;;;7.59;50.07
24996;BME280;13016;52.162;21.034;2023-03-13T03:13:15;99789.39;;;7.70;49.66
24996;BME280;13016;52.162;21.034;2023-03-13T03:15:40;99795.85;;;7.65;49.69
24996;BME280;13016;52.162;21.034;2023-03-13T03:18:06;99799.55;;;7.79;49.60
24996;BME280;13016;52.162;21.034;2023-03-13T03:20:53;99798.70;;;7.91;49.32
24996;BME280;13016;52.162;21.034;2023-03-13T03:23:18;99799.95;;;7.79;49.54
24996;BME280;13016;52.162;21.034;2023-03-13T03:25:43;99791.25;;;7.65;49.88
24996;BME280;13016;52.162;21.034;2023-03-13T03:28:08;99780.48;;;7.66;50.09
24996;BME280;13016;52.162;21.034;2023-03-13T03:30:34;99779.77;;;7.52;50.35
24996;BME280;13016;52.162;21.034;2023-03-13T03:33:00;99785.45;;;7.44;50.53
24996;BME280;13016;52.162;21.034;2023-03-13T03:35:29;99789.50;;;7.56;50.35
24996;BME280;13016;52.162;21.034;2023-03-13T03:37:54;99786.59;;;7.58;50.30
24996;BME280;13016;52.162;21.034;2023-03-13T03:40:19;99779.91;;;7.31;50.71
24996;BME280;13016;52.162;21.034;2023-03-13T03:42:44;99787.63;;;7.43;50.68
24996;BME280;13016;52.162;21.034;2023-03-13T03:46:06;99788.19;;;7.64;50.18
24996;BME280;13016;52.162;21.034;2023-03-13T03:48:31;99785.05;;;7.69;49.82
24996;BME280;13016;52.162;21.034;2023-03-13T03:50:56;99779.02;;;7.82;49.60
24996;BME280;13016;52.162;21.034;2023-03-13T03:53:21;99781.66;;;7.88;49.43
24996;BME280;13016;52.162;21.034;2023-03-13T03:55:47;99783.36;;;7.80;49.64
24996;BME280;13016;52.162;21.034;2023-03-13T03:58:12;99778.06;;;7.80;49.77
24996;BME280;13016;52.162;21.034;2023-03-13T04:03:20;99764.20;;;7.48;51.03
24996;BME280;13016;52.162;21.034;2023-03-13T04:05:45;99770.98;;;7.76;50.54
24996;BME280;13016;52.162;21.034;2023-03-13T04:08:10;99764.92;;;7.65;50.78
24996;BME280;13016;52.162;21.034;2023-03-13T04:10:35;99755.54;;;7.37;51.86
24996;BME280;13016;52.162;21.034;2023-03-13T04:13:01;99757.14;;;7.46;51.82
24996;BME280;13016;52.162;21.034;2023-03-13T04:15:26;99757.44;;;7.61;51.53
24996;BME280;13016;52.162;21.034;2023-03-13T04:17:51;99753.16;;;7.54;51.79
24996;BME280;13016;52.162;21.034;2023-03-13T04:20:16;99758.83;;;7.67;51.89
24996;BME280;13016;52.162;21.034;2023-03-13T04:22:41;99756.84;;;8.09;50.97
24996;BME280;13016;52.162;21.034;2023-03-13T04:25:07;99757.45;;;8.20;50.52
24996;BME280;13016;52.162;21.034;2023-03-13T04:27:32;99747.89;;;8.12;50.53
24996;BME280;13016;52.162;21.034;2023-03-13T04:29:57;99742.85;;;7.73;51.72
24996;BME280;13016;52.162;21.034;2023-03-13T04:32:23;99736.98;;;7.95;51.74
24996;BME280;13016;52.162;21.034;2023-03-13T04:34:48;99735.50;;;8.07;51.79
24996;BME280;13016;52.162;21.034;2023-03-13T04:37:13;99733.97;;;8.10;52.05
24996;BME280;13016;52.162;21.034;2023-03-13T04:39:38;99729.54;;;7.79;53.33
24996;BME280;13016;52.162;21.034;2023-03-13T04:44:44;99719.98;;;7.74;54.61
24996;BME280;13016;52.162;21.034;2023-03-13T04:47:10;99717.55;;;7.88;54.39
24996;BME280;13016;52.162;21.034;2023-03-13T04:49:41;99714.27;;;7.82;54.99
24996;BME280;13016;52.162;21.034;2023-03-13T04:52:06;99710.81;;;7.57;55.83
24996;BME280;13016;52.162;21.034;2023-03-13T04:54:31;99710.92;;;7.67;55.71
24996;BME280;13016;52.162;21.034;2023-03-13T04:56:57;99707.64;;;7.69;56.00
24996;BME280;13016;52.162;21.034;2023-03-13T04:59:30;99712.11;;;7.99;55.41
24996;BME280;13016;52.162;21.034;2023-03-13T05:04:39;99705.06;;;7.94;55.16
24996;BME280;13016;52.162;21.034;2023-03-13T05:07:04;99705.80;;;7.85;55.64
24996;BME280;13016;52.162;21.034;2023-03-13T05:09:29;99702.91;;;7.89;55.54
24996;BME280;13016;52.162;21.034;2023-03-13T05:11:54;99703.95;;;7.81;55.91
24996;BME280;13016;52.162;21.034;2023-03-13T05:14:19;99702.41;;;7.97;55.67
24996;BME280;13016;52.162;21.034;2023-03-13T05:16:45;99703.58;;;7.84;56.15
24996;BME280;13016;52.162;21.034;2023-03-13T05:19:10;99700.44;;;7.81;56.61
24996;BME280;13016;52.162;21.034;2023-03-13T05:21:47;99696.73;;;7.55;57.59
24996;BME280;13016;52.162;21.034;2023-03-13T05:24:13;99692.89;;;7.75;57.78
24996;BME280;13016;52.162;21.034;2023-03-13T05:26:38;99693.75;;;7.98;57.27
24996;BME280;13016;52.162;21.034;2023-03-13T05:29:12;99691.73;;;7.68;58.22
24996;BME280;13016;52.162;21.034;2023-03-13T05:31:37;99698.94;;;7.94;57.89
24996;BME280;13016;52.162;21.034;2023-03-13T05:34:12;99697.60;;;8.24;57.37
24996;BME280;13016;52.162;21.034;2023-03-13T05:48:50;99696.85;;;8.11;57.87
24996;BME280;13016;52.162;21.034;2023-03-13T05:51:51;99699.86;;;7.82;59.11
24996;BME280;13016;52.162;21.034;2023-03-13T05:54:24;99703.25;;;8.21;58.68
24996;BME280;13016;52.162;21.034;2023-03-13T07:29:13;99659.02;;;9.29;59.70
24996;BME280;13016;52.162;21.034;2023-03-13T15:58:56;99047.16;;;15.12;60.36
24996;BME280;13016;52.162;21.034;2023-03-13T16:27:14;99056.92;;;15.00;60.13
24996;BME280;13016;52.162;21.034;2023-03-13T16:30:16;99050.17;;;15.12;59.56
24996;BME280;13016;52.162;21.034;2023-03-13T16:34:14;99050.23;;;15.15;59.17
24996;BME280;13016;52.162;21.034;2023-03-13T16:50:52;99052.71;;;14.83;58.72
24996;BME280;13016;52.162;21.034;2023-03-13T16:53:46;99053.98;;;15.10;57.95
24996;BME280;13016;52.162;21.034;2023-03-13T16:56:33;99053.58;;;15.23;57.46
24996;BME280;13016;52.162;21.034;2023-03-13T17:04:05;99049.13;;;14.98;57.70
24996;BME280;13016;52.162;21.034;2023-03-13T17:31:48;99063.83;;;15.14;56.18
24996;BME280;13016;52.162;21.034;2023-03-13T17:34:27;99066.86;;;15.39;55.37
24996;BME280;13016;52.162;21.034;2023-03-13T17:40:09;99065.27;;;15.26;55.07
24996;BME280;13016;52.162;21.034;2023-03-13T17:42:49;99066.36;;;15.03;55.48
24996;BME280;13016;52.162;21.034;2023-03-13T17:48:10;99065.84;;;15.35;54.71
24996;BME280;13016;52.162;21.034;2023-03-13T17:53:52;99067.46;;;15.47;53.85
24996;BME280;13016;52.162;21.034;2023-03-13T18:08:48;99055.09;;;15.60;52.85
24996;BME280;13016;52.162;21.034;2023-03-13T18:22:18;99040.39;;;15.73;51.99
24996;BME280;13016;52.162;21.034;2023-03-13T18:25:46;99040.49;;;15.90;51.49
24996;BME280;13016;52.162;21.034;2023-03-13T19:41:24;99012.01;;;15.98;48.24
24996;BME280;13016;52.162;21.034;2023-03-13T20:02:29;99031.40;;;16.18;47.94
24996;BME280;13016;52.162;21.034;2023-03-13T20:04:54;99031.09;;;16.23;47.94
24996;BME280;13016;52.162;21.034;2023-03-13T20:07:27;99023.64;;;15.77;48.45
24996;BME280;13016;52.162;21.034;2023-03-13T20:12:49;99010.20;;;15.91;48.18
24996;BME280;13016;52.162;21.034;2023-03-13T20:15:14;99010.21;;;16.17;47.87
24996;BME280;13016;52.162;21.034;2023-03-13T20:17:49;99017.70;;;16.26;47.72
24996;BME280;13016;52.162;21.034;2023-03-13T20:20:23;99017.50;;;16.20;47.76
24996;BME280;13016;52.162;21.034;2023-03-13T20:22:52;99019.98;;;16.23;47.64
24996;BME280;13016;52.162;21.034;2023-03-13T22:26:08;98899.63;;;15.91;46.72
24996;BME280;13016;52.162;21.034;2023-03-13T22:35:51;98897.52;;;15.86;46.75
24996;BME280;13016;52.162;21.034;2023-03-13T22:45:55;98883.78;;;15.60;46.68
24996;BME280;13016;52.162;21.034;2023-03-13T22:54:08;98883.19;;;16.07;45.79
24996;BME280;13016;52.162;21.034;2023-03-13T23:41:39;98854.40;;;15.07;46.69
24996;BME280;13016;52.162;21.034;2023-03-13T23:44:24;98857.77;;;14.85;47.23
